sensor_id;sensor_type;location;lat;lon;timestamp;temperature;humidity
55313;DHT22;46892;45.668;11.756;2023-06-10T00:01:38;19.50;85.80
55313;DHT22;46892;45.668;11.756;2023-06-10T00:04:04;19.60;85.40
55313;DHT22;46892;45.668;11.756;2023-06-10T00:06:30;19.60;85.40
55313;DHT22;46892;45.668;11.756;2023-06-10T00:09:04;19.70;85.50
55313;DHT22;46892;45.668;11.756;2023-06-10T00:11:33;19.60;85.60
55313;DHT22;46892;45.668;11.756;2023-06-10T00:13:59;19.70;85.30
55313;DHT22;46892;45.668;11.756;2023-06-10T00:16:25;19.60;85.30
55313;DHT22;46892;45.668;11.756;2023-06-10T00:18:51;19.60;85.40
55313;DHT22;46892;45.668;11.756;2023-06-10T00:21:17;19.50;85.40
55313;DHT22;46892;45.668;11.756;2023-06-10T00:23:44;19.50;85.80
55313;DHT22;46892;45.668;11.756;2023-06-10T00:26:10;19.30;86.10
55313;DHT22;46892;45.668;11.756;2023-06-10T00:28:36;19.40;86.20
55313;DHT22;46892;45.668;11.756;2023-06-10T00:31:01;19.50;86.60
55313;DHT22;46892;45.668;11.756;2023-06-10T00:33:28;19.50;86.70
55313;DHT22;46892;45.668;11.756;2023-06-10T00:35:54;19.60;86.60
55313;DHT22;46892;45.668;11.756;2023-06-10T00:38:20;19.60;86.30
55313;DHT22;46892;45.668;11.756;2023-06-10T00:40:46;19.70;86.00
55313;DHT22;46892;45.668;11.756;2023-06-10T00:43:11;19.70;85.60
55313;DHT22;46892;45.668;11.756;2023-06-10T00:45:37;19.70;86.00
55313;DHT22;46892;45.668;11.756;2023-06-10T00:48:03;19.70;86.00
55313;DHT22;46892;45.668;11.756;2023-06-10T00:50:29;19.70;85.90
55313;DHT22;46892;45.668;11.756;2023-06-10T00:52:56;19.70;85.90
55313;DHT22;46892;45.668;11.756;2023-06-10T00:55:23;19.80;85.00
55313;DHT22;46892;45.668;11.756;2023-06-10T00:57:50;19.90;84.70
55313;DHT22;46892;45.668;11.756;2023-06-10T01:00:17;19.80;85.40
55313;DHT22;46892;45.668;11.756;2023-06-10T01:02:43;19.70;85.60
55313;DHT22;46892;45.668;11.756;2023-06-10T01:05:09;19.70;85.60
55313;DHT22;46892;45.668;11.756;2023-06-10T01:10:26;19.60;85.90
55313;DHT22;46892;45.668;11.756;2023-06-10T01:13:05;19.60;85.90
55313;DHT22;46892;45.668;11.756;2023-06-10T01:15:32;19.60;85.60
55313;DHT22;46892;45.668;11.756;2023-06-10T01:18:03;19.60;85.30
55313;DHT22;46892;45.668;11.756;2023-06-10T01:20:31;19.60;85.10
55313;DHT22;46892;45.668;11.756;2023-06-10T01:23:01;19.60;85.80
55313;DHT22;46892;45.668;11.756;2023-06-10T01:25:29;19.60;85.60
55313;DHT22;46892;45.668;11.756;2023-06-10T01:28:14;19.60;85.40
55313;DHT22;46892;45.668;11.756;2023-06-10T01:33:25;19.60;84.50
55313;DHT22;46892;45.668;11.756;2023-06-10T01:35:53;19.50;85.00
55313;DHT22;46892;45.668;11.756;2023-06-10T01:38:20;19.40;85.20
55313;DHT22;46892;45.668;11.756;2023-06-10T01:40:48;19.40;85.40
55313;DHT22;46892;45.668;11.756;2023-06-10T01:43:15;19.30;85.20
55313;DHT22;46892;45.668;11.756;2023-06-10T01:45:40;19.30;85.30
55313;DHT22;46892;45.668;11.756;2023-06-10T01:48:06;19.30;85.60
55313;DHT22;46892;45.668;11.756;2023-06-10T01:50:32;19.30;85.60
55313;DHT22;46892;45.668;11.756;2023-06-10T01:52:59;19.30;85.90
55313;DHT22;46892;45.668;11.756;2023-06-10T01:55:25;19.30;85.90
55313;DHT22;46892;45.668;11.756;2023-06-10T01:57:50;19.30;85.80
55313;DHT22;46892;45.668;11.756;2023-06-10T02:00:17;19.30;85.60
55313;DHT22;46892;45.668;11.756;2023-06-10T02:02:43;19.30;85.80
55313;DHT22;46892;45.668;11.756;2023-06-10T02:05:09;19.30;85.60
55313;DHT22;46892;45.668;11.756;2023-06-10T02:07:34;19.30;85.60
55313;DHT22;46892;45.668;11.756;2023-06-10T02:10:00;19.30;84.90
55313;DHT22;46892;45.668;11.756;2023-06-10T02:12:26;19.30;85.60
55313;DHT22;46892;45.668;11.756;2023-06-10T02:14:52;19.20;85.70
55313;DHT22;46892;45.668;11.756;2023-06-10T02:17:17;19.20;86.00
55313;DHT22;46892;45.668;11.756;2023-06-10T02:19:43;19.20;86.00
55313;DHT22;46892;45.668;11.756;2023-06-10T02:22:09;19.20;85.80
55313;DHT22;46892;45.668;11.756;2023-06-10T02:24:36;19.20;85.80
55313;DHT22;46892;45.668;11.756;2023-06-10T02:27:04;19.20;85.70
55313;DHT22;46892;45.668;11.756;2023-06-10T02:29:35;19.20;85.30
55313;DHT22;46892;45.668;11.756;2023-06-10T02:32:02;19.20;85.30
55313;DHT22;46892;45.668;11.756;2023-06-10T02:34:28;19.20;85.30
55313;DHT22;46892;45.668;11.756;2023-06-10T02:36:54;19.10;85.10
55313;DHT22;46892;45.668;11.756;2023-06-10T02:39:21;19.10;85.10
55313;DHT22;46892;45.668;11.756;2023-06-10T02:41:46;19.10;84.70
55313;DHT22;46892;45.668;11.756;2023-06-10T02:44:12;19.20;84.40
55313;DHT22;46892;45.668;11.756;2023-06-10T02:46:38;19.10;85.10
55313;DHT22;46892;45.668;11.756;2023-06-10T02:49:03;19.00;84.70
55313;DHT22;46892;45.668;11.756;2023-06-10T02:51:29;19.00;84.70
55313;DHT22;46892;45.668;11.756;2023-06-10T02:53:55;18.90;84.70
55313;DHT22;46892;45.668;11.756;2023-06-10T02:56:21;18.80;84.80
55313;DHT22;46892;45.668;11.756;2023-06-10T02:58:47;18.80;84.90
55313;DHT22;46892;45.668;11.756;2023-06-10T03:01:13;18.70;85.10
55313;DHT22;46892;45.668;11.756;2023-06-10T03:03:39;18.80;84.80
55313;DHT22;46892;45.668;11.756;2023-06-10T03:06:09;18.80;85.10
55313;DHT22;46892;45.668;11.756;2023-06-10T03:08:36;18.80;85.50
55313;DHT22;46892;45.668;11.756;2023-06-10T03:11:02;18.70;85.90
55313;DHT22;46892;45.668;11.756;2023-06-10T03:13:28;18.70;86.60
55313;DHT22;46892;45.668;11.756;2023-06-10T03:15:53;18.70;86.40
55313;DHT22;46892;45.668;11.756;2023-06-10T03:18:19;18.70;86.00
55313;DHT22;46892;45.668;11.756;2023-06-10T03:20:45;18.70;85.90
55313;DHT22;46892;45.668;11.756;2023-06-10T03:23:11;18.70;85.90
55313;DHT22;46892;45.668;11.756;2023-06-10T03:25:37;18.60;86.10
55313;DHT22;46892;45.668;11.756;2023-06-10T03:28:03;18.50;86.70
55313;DHT22;46892;45.668;11.756;2023-06-10T03:30:28;18.70;86.50
55313;DHT22;46892;45.668;11.756;2023-06-10T03:32:54;18.80;86.20
55313;DHT22;46892;45.668;11.756;2023-06-10T03:35:20;18.80;86.00
55313;DHT22;46892;45.668;11.756;2023-06-10T03:37:46;18.80;86.20
55313;DHT22;46892;45.668;11.756;2023-06-10T03:40:12;18.80;86.50
55313;DHT22;46892;45.668;11.756;2023-06-10T03:42:37;18.80;86.70
55313;DHT22;46892;45.668;11.756;2023-06-10T03:45:04;18.60;87.00
55313;DHT22;46892;45.668;11.756;2023-06-10T03:47:34;18.50;87.20
55313;DHT22;46892;45.668;11.756;2023-06-10T03:50:07;18.50;87.40
55313;DHT22;46892;45.668;11.756;2023-06-10T03:52:33;18.50;87.70
55313;DHT22;46892;45.668;11.756;2023-06-10T03:54:59;18.50;87.70
55313;DHT22;46892;45.668;11.756;2023-06-10T03:57:25;18.50;87.80
55313;DHT22;46892;45.668;11.756;2023-06-10T03:59:51;18.50;87.70
55313;DHT22;46892;45.668;11.756;2023-06-10T04:02:17;18.50;87.70
55313;DHT22;46892;45.668;11.756;2023-06-10T04:04:43;18.50;87.80
55313;DHT22;46892;45.668;11.756;2023-06-10T04:07:09;18.60;87.60
55313;DHT22;46892;45.668;11.756;2023-06-10T04:09:35;18.80;87.20
55313;DHT22;46892;45.668;11.756;2023-06-10T04:12:02;18.90;86.50
55313;DHT22;46892;45.668;11.756;2023-06-10T04:14:28;19.00;86.30
55313;DHT22;46892;45.668;11.756;2023-06-10T04:16:54;19.00;86.20
55313;DHT22;46892;45.668;11.756;2023-06-10T04:19:20;19.00;86.40
55313;DHT22;46892;45.668;11.756;2023-06-10T04:21:46;18.80;86.80
55313;DHT22;46892;45.668;11.756;2023-06-10T04:24:12;18.80;87.20
55313;DHT22;46892;45.668;11.756;2023-06-10T04:26:38;18.80;87.40
55313;DHT22;46892;45.668;11.756;2023-06-10T04:29:04;18.70;87.70
55313;DHT22;46892;45.668;11.756;2023-06-10T04:31:29;18.70;88.00
55313;DHT22;46892;45.668;11.756;2023-06-10T04:33:55;18.80;88.20
55313;DHT22;46892;45.668;11.756;2023-06-10T04:36:21;18.80;88.40
55313;DHT22;46892;45.668;11.756;2023-06-10T04:38:47;18.90;88.20
55313;DHT22;46892;45.668;11.756;2023-06-10T04:41:13;19.10;87.90
55313;DHT22;46892;45.668;11.756;2023-06-10T04:43:39;19.20;87.50
55313;DHT22;46892;45.668;11.756;2023-06-10T04:46:05;19.20;87.70
55313;DHT22;46892;45.668;11.756;2023-06-10T04:48:30;19.20;87.80
55313;DHT22;46892;45.668;11.756;2023-06-10T04:50:58;19.30;87.40
55313;DHT22;46892;45.668;11.756;2023-06-10T04:53:24;19.30;87.20
55313;DHT22;46892;45.668;11.756;2023-06-10T04:55:49;19.50;86.60
55313;DHT22;46892;45.668;11.756;2023-06-10T04:58:15;19.50;86.50
55313;DHT22;46892;45.668;11.756;2023-06-10T05:00:41;19.50;86.50
55313;DHT22;46892;45.668;11.756;2023-06-10T05:03:07;19.50;86.50
55313;DHT22;46892;45.668;11.756;2023-06-10T05:05:33;19.50;86.70
55313;DHT22;46892;45.668;11.756;2023-06-10T05:07:59;19.50;86.80
55313;DHT22;46892;45.668;11.756;2023-06-10T05:10:24;19.60;86.20
55313;DHT22;46892;45.668;11.756;2023-06-10T05:12:50;19.60;85.10
55313;DHT22;46892;45.668;11.756;2023-06-10T05:15:16;19.60;83.30
55313;DHT22;46892;45.668;11.756;2023-06-10T05:17:42;19.60;84.10
55313;DHT22;46892;45.668;11.756;2023-06-10T05:20:08;19.70;83.50
55313;DHT22;46892;45.668;11.756;2023-06-10T05:22:34;19.80;83.90
55313;DHT22;46892;45.668;11.756;2023-06-10T05:25:00;19.90;84.00
55313;DHT22;46892;45.668;11.756;2023-06-10T05:27:25;20.10;83.20
55313;DHT22;46892;45.668;11.756;2023-06-10T05:29:51;20.20;82.30
55313;DHT22;46892;45.668;11.756;2023-06-10T05:32:17;20.20;80.70
55313;DHT22;46892;45.668;11.756;2023-06-10T05:34:43;20.30;81.60
55313;DHT22;46892;45.668;11.756;2023-06-10T05:37:09;20.30;80.80
55313;DHT22;46892;45.668;11.756;2023-06-10T05:39:35;20.30;80.30
55313;DHT22;46892;45.668;11.756;2023-06-10T05:42:05;20.40;81.00
55313;DHT22;46892;45.668;11.756;2023-06-10T05:44:32;20.50;81.30
55313;DHT22;46892;45.668;11.756;2023-06-10T05:46:58;20.70;81.10
55313;DHT22;46892;45.668;11.756;2023-06-10T05:49:23;20.70;79.00
55313;DHT22;46892;45.668;11.756;2023-06-10T05:51:49;20.80;80.00
55313;DHT22;46892;45.668;11.756;2023-06-10T05:54:15;20.80;79.50
55313;DHT22;46892;45.668;11.756;2023-06-10T05:56:41;20.80;79.70
55313;DHT22;46892;45.668;11.756;2023-06-10T05:59:07;20.80;80.40
55313;DHT22;46892;45.668;11.756;2023-06-10T06:01:33;20.80;79.70
55313;DHT22;46892;45.668;11.756;2023-06-10T06:03:58;20.80;80.20
55313;DHT22;46892;45.668;11.756;2023-06-10T06:06:25;20.80;80.20
55313;DHT22;46892;45.668;11.756;2023-06-10T06:08:50;20.80;80.80
55313;DHT22;46892;45.668;11.756;2023-06-10T06:11:16;20.90;80.20
55313;DHT22;46892;45.668;11.756;2023-06-10T06:13:42;21.00;79.40
55313;DHT22;46892;45.668;11.756;2023-06-10T06:16:08;21.10;79.30
55313;DHT22;46892;45.668;11.756;2023-06-10T06:18:33;21.00;79.80
55313;DHT22;46892;45.668;11.756;2023-06-10T06:20:59;21.00;80.10
55313;DHT22;46892;45.668;11.756;2023-06-10T06:23:25;21.00;79.90
55313;DHT22;46892;45.668;11.756;2023-06-10T06:25:51;21.00;79.20
55313;DHT22;46892;45.668;11.756;2023-06-10T06:28:17;21.20;80.00
55313;DHT22;46892;45.668;11.756;2023-06-10T06:30:44;21.30;79.50
55313;DHT22;46892;45.668;11.756;2023-06-10T06:33:10;21.20;79.20
55313;DHT22;46892;45.668;11.756;2023-06-10T06:35:36;21.20;79.20
55313;DHT22;46892;45.668;11.756;2023-06-10T06:38:03;21.30;79.90
55313;DHT22;46892;45.668;11.756;2023-06-10T06:40:30;21.50;80.20
55313;DHT22;46892;45.668;11.756;2023-06-10T06:42:55;21.70;78.00
55313;DHT22;46892;45.668;11.756;2023-06-10T06:45:21;21.80;80.20
55313;DHT22;46892;45.668;11.756;2023-06-10T06:47:47;22.00;76.00
55313;DHT22;46892;45.668;11.756;2023-06-10T06:50:13;22.30;75.20
55313;DHT22;46892;45.668;11.756;2023-06-10T06:52:39;22.40;75.40
55313;DHT22;46892;45.668;11.756;2023-06-10T06:55:05;22.60;75.90
55313;DHT22;46892;45.668;11.756;2023-06-10T06:57:30;22.70;71.40
55313;DHT22;46892;45.668;11.756;2023-06-10T06:59:56;22.70;70.90
55313;DHT22;46892;45.668;11.756;2023-06-10T07:02:22;22.80;71.60
55313;DHT22;46892;45.668;11.756;2023-06-10T07:04:48;22.90;70.70
55313;DHT22;46892;45.668;11.756;2023-06-10T07:07:15;22.90;71.40
55313;DHT22;46892;45.668;11.756;2023-06-10T07:09:41;22.90;70.20
55313;DHT22;46892;45.668;11.756;2023-06-10T07:12:07;22.90;71.40
55313;DHT22;46892;45.668;11.756;2023-06-10T07:14:33;22.90;71.20
55313;DHT22;46892;45.668;11.756;2023-06-10T07:16:58;23.10;70.90
55313;DHT22;46892;45.668;11.756;2023-06-10T07:19:24;23.10;70.50
55313;DHT22;46892;45.668;11.756;2023-06-10T07:21:50;23.10;70.40
55313;DHT22;46892;45.668;11.756;2023-06-10T07:24:16;23.20;71.50
55313;DHT22;46892;45.668;11.756;2023-06-10T07:26:41;23.20;72.50
55313;DHT22;46892;45.668;11.756;2023-06-10T07:29:07;23.30;71.40
55313;DHT22;46892;45.668;11.756;2023-06-10T07:31:33;23.50;69.70
55313;DHT22;46892;45.668;11.756;2023-06-10T07:33:59;23.60;67.60
55313;DHT22;46892;45.668;11.756;2023-06-10T07:36:25;23.60;66.60
55313;DHT22;46892;45.668;11.756;2023-06-10T07:38:53;23.60;68.00
55313;DHT22;46892;45.668;11.756;2023-06-10T07:41:19;23.40;67.70
55313;DHT22;46892;45.668;11.756;2023-06-10T07:43:45;23.30;68.80
55313;DHT22;46892;45.668;11.756;2023-06-10T07:46:11;23.40;68.30
55313;DHT22;46892;45.668;11.756;2023-06-10T07:48:37;23.30;70.00
55313;DHT22;46892;45.668;11.756;2023-06-10T07:51:03;23.40;72.30
55313;DHT22;46892;45.668;11.756;2023-06-10T07:53:28;23.50;69.00
55313;DHT22;46892;45.668;11.756;2023-06-10T07:55:55;23.60;68.70
55313;DHT22;46892;45.668;11.756;2023-06-10T07:58:21;23.70;68.50
55313;DHT22;46892;45.668;11.756;2023-06-10T08:00:47;23.60;68.00
55313;DHT22;46892;45.668;11.756;2023-06-10T08:03:13;23.70;68.40
55313;DHT22;46892;45.668;11.756;2023-06-10T08:05:42;23.60;68.20
55313;DHT22;46892;45.668;11.756;2023-06-10T08:08:08;23.50;67.50
55313;DHT22;46892;45.668;11.756;2023-06-10T08:10:34;23.50;68.20
55313;DHT22;46892;45.668;11.756;2023-06-10T08:13:00;23.50;67.60
55313;DHT22;46892;45.668;11.756;2023-06-10T08:15:25;23.50;68.50
55313;DHT22;46892;45.668;11.756;2023-06-10T08:17:51;23.50;68.20
55313;DHT22;46892;45.668;11.756;2023-06-10T08:20:18;23.60;68.40
55313;DHT22;46892;45.668;11.756;2023-06-10T08:22:43;23.70;70.80
55313;DHT22;46892;45.668;11.756;2023-06-10T08:25:10;23.70;67.60
55313;DHT22;46892;45.668;11.756;2023-06-10T08:27:35;23.70;68.40
55313;DHT22;46892;45.668;11.756;2023-06-10T08:30:01;23.80;68.80
55313;DHT22;46892;45.668;11.756;2023-06-10T08:32:27;23.70;69.70
55313;DHT22;46892;45.668;11.756;2023-06-10T08:34:53;23.70;67.80
55313;DHT22;46892;45.668;11.756;2023-06-10T08:37:19;23.80;68.00
55313;DHT22;46892;45.668;11.756;2023-06-10T08:39:44;23.70;70.50
55313;DHT22;46892;45.668;11.756;2023-06-10T08:42:26;23.70;70.40
55313;DHT22;46892;45.668;11.756;2023-06-10T08:44:55;23.70;70.20
55313;DHT22;46892;45.668;11.756;2023-06-10T08:47:23;23.90;70.30
55313;DHT22;46892;45.668;11.756;2023-06-10T08:49:50;23.90;68.40
55313;DHT22;46892;45.668;11.756;2023-06-10T08:52:19;24.10;68.80
55313;DHT22;46892;45.668;11.756;2023-06-10T08:55:05;24.20;72.60
55313;DHT22;46892;45.668;11.756;2023-06-10T08:57:34;24.20;69.30
55313;DHT22;46892;45.668;11.756;2023-06-10T09:00:01;24.30;69.30
55313;DHT22;46892;45.668;11.756;2023-06-10T09:02:28;24.30;72.50
55313;DHT22;46892;45.668;11.756;2023-06-10T09:04:56;24.30;71.00
55313;DHT22;46892;45.668;11.756;2023-06-10T09:07:23;24.30;68.50
55313;DHT22;46892;45.668;11.756;2023-06-10T09:09:49;24.40;69.10
55313;DHT22;46892;45.668;11.756;2023-06-10T09:12:15;24.40;70.10
55313;DHT22;46892;45.668;11.756;2023-06-10T09:14:44;24.40;69.60
55313;DHT22;46892;45.668;11.756;2023-06-10T09:17:10;24.30;68.20
55313;DHT22;46892;45.668;11.756;2023-06-10T09:19:37;24.40;71.40
55313;DHT22;46892;45.668;11.756;2023-06-10T09:22:04;24.50;70.90
55313;DHT22;46892;45.668;11.756;2023-06-10T09:24:29;24.50;71.80
55313;DHT22;46892;45.668;11.756;2023-06-10T09:27:06;24.70;70.90
55313;DHT22;46892;45.668;11.756;2023-06-10T09:29:51;24.80;69.60
55313;DHT22;46892;45.668;11.756;2023-06-10T09:32:18;25.00;70.40
55313;DHT22;46892;45.668;11.756;2023-06-10T09:34:44;25.20;67.60
55313;DHT22;46892;45.668;11.756;2023-06-10T09:37:10;25.20;69.80
55313;DHT22;46892;45.668;11.756;2023-06-10T09:39:38;25.30;70.30
55313;DHT22;46892;45.668;11.756;2023-06-10T09:42:17;25.20;67.50
55313;DHT22;46892;45.668;11.756;2023-06-10T09:44:52;25.00;68.80
55313;DHT22;46892;45.668;11.756;2023-06-10T09:47:22;24.70;68.20
55313;DHT22;46892;45.668;11.756;2023-06-10T09:49:51;24.60;67.60
55313;DHT22;46892;45.668;11.756;2023-06-10T09:52:25;24.50;68.70
55313;DHT22;46892;45.668;11.756;2023-06-10T09:54:52;24.40;68.70
55313;DHT22;46892;45.668;11.756;2023-06-10T09:57:20;24.30;68.90
55313;DHT22;46892;45.668;11.756;2023-06-10T09:59:46;24.30;69.10
55313;DHT22;46892;45.668;11.756;2023-06-10T10:02:16;24.30;70.70
55313;DHT22;46892;45.668;11.756;2023-06-10T10:04:43;24.40;70.20
55313;DHT22;46892;45.668;11.756;2023-06-10T10:07:09;24.50;69.30
55313;DHT22;46892;45.668;11.756;2023-06-10T10:09:39;24.70;71.20
55313;DHT22;46892;45.668;11.756;2023-06-10T10:12:07;24.70;70.00
55313;DHT22;46892;45.668;11.756;2023-06-10T10:14:35;24.90;70.30
55313;DHT22;46892;45.668;11.756;2023-06-10T10:17:02;25.10;69.60
55313;DHT22;46892;45.668;11.756;2023-06-10T10:19:31;25.20;70.40
55313;DHT22;46892;45.668;11.756;2023-06-10T10:22:08;25.30;70.00
55313;DHT22;46892;45.668;11.756;2023-06-10T10:24:45;25.50;67.20
55313;DHT22;46892;45.668;11.756;2023-06-10T10:27:21;25.60;66.90
55313;DHT22;46892;45.668;11.756;2023-06-10T10:29:52;25.70;67.40
55313;DHT22;46892;45.668;11.756;2023-06-10T10:32:24;25.70;65.80
55313;DHT22;46892;45.668;11.756;2023-06-10T10:35:16;25.70;64.70
55313;DHT22;46892;45.668;11.756;2023-06-10T10:37:43;25.50;67.00
55313;DHT22;46892;45.668;11.756;2023-06-10T10:40:11;25.60;69.20
55313;DHT22;46892;45.668;11.756;2023-06-10T10:42:37;25.60;70.60
55313;DHT22;46892;45.668;11.756;2023-06-10T10:45:04;25.50;70.30
55313;DHT22;46892;45.668;11.756;2023-06-10T10:47:31;25.50;71.40
55313;DHT22;46892;45.668;11.756;2023-06-10T10:49:58;25.50;70.50
55313;DHT22;46892;45.668;11.756;2023-06-10T10:52:27;25.40;69.60
55313;DHT22;46892;45.668;11.756;2023-06-10T10:54:53;25.40;70.90
55313;DHT22;46892;45.668;11.756;2023-06-10T10:57:23;25.30;69.80
55313;DHT22;46892;45.668;11.756;2023-06-10T11:04:47;25.50;71.60
55313;DHT22;46892;45.668;11.756;2023-06-10T11:07:13;25.70;70.70
55313;DHT22;46892;45.668;11.756;2023-06-10T11:15:11;26.10;68.50
55313;DHT22;46892;45.668;11.756;2023-06-10T11:17:37;26.10;69.80
55313;DHT22;46892;45.668;11.756;2023-06-10T11:20:04;26.20;71.90
55313;DHT22;46892;45.668;11.756;2023-06-10T11:22:30;26.30;70.80
55313;DHT22;46892;45.668;11.756;2023-06-10T11:24:56;26.20;69.40
55313;DHT22;46892;45.668;11.756;2023-06-10T11:27:24;26.20;68.70
55313;DHT22;46892;45.668;11.756;2023-06-10T11:32:32;25.90;67.90
55313;DHT22;46892;45.668;11.756;2023-06-10T11:34:59;25.80;68.60
55313;DHT22;46892;45.668;11.756;2023-06-10T11:37:25;25.80;69.40
55313;DHT22;46892;45.668;11.756;2023-06-10T11:39:54;25.70;67.70
55313;DHT22;46892;45.668;11.756;2023-06-10T11:42:22;25.60;69.20
55313;DHT22;46892;45.668;11.756;2023-06-10T11:44:53;25.60;70.30
55313;DHT22;46892;45.668;11.756;2023-06-10T11:47:19;25.50;69.80
55313;DHT22;46892;45.668;11.756;2023-06-10T11:49:46;25.50;70.20
55313;DHT22;46892;45.668;11.756;2023-06-10T11:52:27;25.40;69.90
55313;DHT22;46892;45.668;11.756;2023-06-10T11:54:54;25.40;69.80
55313;DHT22;46892;45.668;11.756;2023-06-10T11:57:20;25.50;68.90
55313;DHT22;46892;45.668;11.756;2023-06-10T11:59:46;25.50;69.60
55313;DHT22;46892;45.668;11.756;2023-06-10T12:02:18;25.30;70.20
55313;DHT22;46892;45.668;11.756;2023-06-10T12:04:45;25.30;70.50
55313;DHT22;46892;45.668;11.756;2023-06-10T12:07:20;25.30;70.10
55313;DHT22;46892;45.668;11.756;2023-06-10T12:09:58;25.30;70.20
55313;DHT22;46892;45.668;11.756;2023-06-10T12:12:25;25.30;70.80
55313;DHT22;46892;45.668;11.756;2023-06-10T12:14:58;25.30;70.80
55313;DHT22;46892;45.668;11.756;2023-06-10T12:20:00;25.30;68.10
55313;DHT22;46892;45.668;11.756;2023-06-10T12:22:26;25.40;68.10
55313;DHT22;46892;45.668;11.756;2023-06-10T12:25:00;25.40;69.10
55313;DHT22;46892;45.668;11.756;2023-06-10T12:27:27;25.50;70.40
55313;DHT22;46892;45.668;11.756;2023-06-10T12:29:56;25.50;69.20
55313;DHT22;46892;45.668;11.756;2023-06-10T12:32:42;25.60;67.90
55313;DHT22;46892;45.668;11.756;2023-06-10T12:35:09;25.60;68.50
55313;DHT22;46892;45.668;11.756;2023-06-10T12:37:35;25.60;68.30
55313;DHT22;46892;45.668;11.756;2023-06-10T12:40:03;25.70;69.10
55313;DHT22;46892;45.668;11.756;2023-06-10T12:42:30;25.80;67.60
55313;DHT22;46892;45.668;11.756;2023-06-10T12:44:57;25.90;67.80
55313;DHT22;46892;45.668;11.756;2023-06-10T12:47:36;25.90;67.40
55313;DHT22;46892;45.668;11.756;2023-06-10T12:50:04;26.00;66.90
55313;DHT22;46892;45.668;11.756;2023-06-10T12:52:31;26.00;66.70
55313;DHT22;46892;45.668;11.756;2023-06-10T12:54:58;26.00;67.70
55313;DHT22;46892;45.668;11.756;2023-06-10T12:57:24;26.00;66.80
55313;DHT22;46892;45.668;11.756;2023-06-10T12:59:51;26.10;65.10
55313;DHT22;46892;45.668;11.756;2023-06-10T13:02:20;26.10;63.90
55313;DHT22;46892;45.668;11.756;2023-06-10T13:04:46;26.10;63.60
55313;DHT22;46892;45.668;11.756;2023-06-10T13:07:12;26.20;65.00
55313;DHT22;46892;45.668;11.756;2023-06-10T13:09:38;26.20;66.50
55313;DHT22;46892;45.668;11.756;2023-06-10T13:12:04;26.20;66.10
55313;DHT22;46892;45.668;11.756;2023-06-10T13:14:30;26.20;66.30
55313;DHT22;46892;45.668;11.756;2023-06-10T13:16:56;26.20;65.40
55313;DHT22;46892;45.668;11.756;2023-06-10T13:19:22;26.20;65.00
55313;DHT22;46892;45.668;11.756;2023-06-10T13:21:48;26.20;65.00
55313;DHT22;46892;45.668;11.756;2023-06-10T13:24:15;26.20;64.60
55313;DHT22;46892;45.668;11.756;2023-06-10T13:26:41;26.30;63.60
55313;DHT22;46892;45.668;11.756;2023-06-10T13:29:06;26.30;63.30
55313;DHT22;46892;45.668;11.756;2023-06-10T13:31:33;26.30;62.80
55313;DHT22;46892;45.668;11.756;2023-06-10T13:33:59;26.20;63.10
55313;DHT22;46892;45.668;11.756;2023-06-10T13:36:25;26.20;62.70
55313;DHT22;46892;45.668;11.756;2023-06-10T13:38:51;26.20;63.20
55313;DHT22;46892;45.668;11.756;2023-06-10T13:41:17;26.20;63.40
55313;DHT22;46892;45.668;11.756;2023-06-10T13:43:43;26.20;64.90
55313;DHT22;46892;45.668;11.756;2023-06-10T13:46:09;26.30;63.30
55313;DHT22;46892;45.668;11.756;2023-06-10T13:48:34;26.30;64.40
55313;DHT22;46892;45.668;11.756;2023-06-10T13:51:00;26.50;65.00
55313;DHT22;46892;45.668;11.756;2023-06-10T13:53:26;26.60;66.40
55313;DHT22;46892;45.668;11.756;2023-06-10T13:55:52;26.70;63.60
55313;DHT22;46892;45.668;11.756;2023-06-10T13:58:18;26.80;60.40
55313;DHT22;46892;45.668;11.756;2023-06-10T14:00:43;26.80;63.40
55313;DHT22;46892;45.668;11.756;2023-06-10T14:03:09;26.70;64.10
55313;DHT22;46892;45.668;11.756;2023-06-10T14:05:35;26.70;62.90
55313;DHT22;46892;45.668;11.756;2023-06-10T14:08:01;26.80;60.90
55313;DHT22;46892;45.668;11.756;2023-06-10T14:10:27;26.90;61.20
55313;DHT22;46892;45.668;11.756;2023-06-10T14:12:54;26.90;63.20
55313;DHT22;46892;45.668;11.756;2023-06-10T14:15:21;26.80;61.70
55313;DHT22;46892;45.668;11.756;2023-06-10T14:17:47;26.90;63.70
55313;DHT22;46892;45.668;11.756;2023-06-10T14:20:14;26.90;64.30
55313;DHT22;46892;45.668;11.756;2023-06-10T14:22:41;26.90;63.70
55313;DHT22;46892;45.668;11.756;2023-06-10T14:25:07;26.80;62.60
55313;DHT22;46892;45.668;11.756;2023-06-10T14:27:33;26.90;60.80
55313;DHT22;46892;45.668;11.756;2023-06-10T14:29:58;26.80;62.90
55313;DHT22;46892;45.668;11.756;2023-06-10T14:32:24;26.80;65.00
55313;DHT22;46892;45.668;11.756;2023-06-10T14:34:50;26.70;63.10
55313;DHT22;46892;45.668;11.756;2023-06-10T14:37:16;26.70;63.20
55313;DHT22;46892;45.668;11.756;2023-06-10T14:39:42;26.70;64.40
55313;DHT22;46892;45.668;11.756;2023-06-10T14:42:08;26.70;63.00
55313;DHT22;46892;45.668;11.756;2023-06-10T14:44:34;26.70;65.60
55313;DHT22;46892;45.668;11.756;2023-06-10T14:47:00;26.90;62.90
55313;DHT22;46892;45.668;11.756;2023-06-10T14:49:25;27.00;64.60
55313;DHT22;46892;45.668;11.756;2023-06-10T14:51:51;26.90;62.80
55313;DHT22;46892;45.668;11.756;2023-06-10T14:54:17;26.90;62.00
55313;DHT22;46892;45.668;11.756;2023-06-10T14:56:43;26.90;62.90
55313;DHT22;46892;45.668;11.756;2023-06-10T14:59:09;26.90;62.30
55313;DHT22;46892;45.668;11.756;2023-06-10T15:01:34;26.90;62.70
55313;DHT22;46892;45.668;11.756;2023-06-10T15:04:00;27.00;62.90
55313;DHT22;46892;45.668;11.756;2023-06-10T15:06:26;26.90;61.70
55313;DHT22;46892;45.668;11.756;2023-06-10T15:08:51;26.80;61.90
55313;DHT22;46892;45.668;11.756;2023-06-10T15:11:17;26.80;60.70
55313;DHT22;46892;45.668;11.756;2023-06-10T15:13:43;26.80;62.30
55313;DHT22;46892;45.668;11.756;2023-06-10T15:16:09;26.70;62.30
55313;DHT22;46892;45.668;11.756;2023-06-10T15:18:34;26.80;62.50
55313;DHT22;46892;45.668;11.756;2023-06-10T15:21:00;26.80;63.00
55313;DHT22;46892;45.668;11.756;2023-06-10T15:23:26;26.90;63.80
55313;DHT22;46892;45.668;11.756;2023-06-10T15:25:52;26.90;63.50
55313;DHT22;46892;45.668;11.756;2023-06-10T15:28:17;26.80;62.40
55313;DHT22;46892;45.668;11.756;2023-06-10T15:30:43;26.80;61.80
55313;DHT22;46892;45.668;11.756;2023-06-10T15:33:09;26.70;63.00
55313;DHT22;46892;45.668;11.756;2023-06-10T15:35:34;26.70;63.70